createdAt,value
2019-05-15T00:00:21.173Z,1024.23
2019-05-15T00:01:21.183Z,1024.15
2019-05-15T00:02:21.180Z,1024.12
2019-05-15T00:03:21.189Z,1024.17
2019-05-15T00:04:21.234Z,1024.12
2019-05-15T00:05:21.211Z,1024.18
2019-05-15T00:06:21.193Z,1024.11
2019-05-15T00:07:21.215Z,1024.09
2019-05-15T00:08:21.212Z,1024.11
2019-05-15T00:09:21.219Z,1024.06
2019-05-15T00:10:21.290Z,1024.07
2019-05-15T00:11:21.249Z,1024.11
2019-05-15T00:12:21.223Z,1024.13
2019-05-15T00:13:21.230Z,1024.10
2019-05-15T00:14:21.236Z,1024.06
2019-05-15T00:15:21.231Z,1024.18
2019-05-15T00:16:21.265Z,1024.02
2019-05-15T00:17:21.270Z,1024.03
2019-05-15T00:18:21.274Z,1024.11
2019-05-15T00:19:21.258Z,1024.01
2019-05-15T00:20:21.305Z,1024.02
2019-05-15T00:21:21.265Z,1024.04
2019-05-15T00:22:21.277Z,1024.04
2019-05-15T00:23:21.265Z,1023.99
2019-05-15T00:24:21.292Z,1024.04
2019-05-15T00:25:22.794Z,1024.03
2019-05-15T00:26:21.308Z,1024.16
2019-05-15T00:27:21.280Z,1023.96
2019-05-15T00:28:21.289Z,1023.98
2019-05-15T00:29:21.298Z,1023.98
2019-05-15T00:30:21.307Z,1023.98
2019-05-15T00:31:21.304Z,1023.98
2019-05-15T00:32:21.291Z,1023.99
2019-05-15T00:33:21.291Z,1023.95
2019-05-15T00:34:21.310Z,1024.03
2019-05-15T00:35:21.309Z,1023.96
2019-05-15T00:36:21.344Z,1023.97
2019-05-15T00:37:21.316Z,1023.96
2019-05-15T00:38:21.324Z,1023.93
2019-05-15T00:39:21.324Z,1023.94
2019-05-15T00:40:21.329Z,1023.93
2019-05-15T00:41:21.360Z,1023.99
2019-05-15T00:42:21.347Z,1024.03
2019-05-15T00:43:21.354Z,1024.02
2019-05-15T00:44:21.331Z,1023.99
2019-05-15T00:45:21.334Z,1023.97
2019-05-15T00:46:21.344Z,1023.94
2019-05-15T00:47:21.361Z,1023.97
2019-05-15T00:48:21.349Z,1023.98
2019-05-15T00:49:21.360Z,1024.00
2019-05-15T00:50:21.376Z,1023.95
2019-05-15T00:51:21.367Z,1023.97
2019-05-15T00:52:21.389Z,1023.95
2019-05-15T00:53:21.378Z,1023.98
2019-05-15T00:54:21.385Z,1023.95
2019-05-15T00:55:21.368Z,1023.99
2019-05-15T00:56:21.370Z,1023.94
2019-05-15T00:57:21.430Z,1023.95
2019-05-15T00:58:21.384Z,1023.97
2019-05-15T00:59:25.948Z,1023.97
2019-05-15T01:00:21.418Z,1023.96
2019-05-15T01:01:21.403Z,1023.97
2019-05-15T01:02:21.428Z,1023.96
2019-05-15T01:03:21.405Z,1023.97
2019-05-15T01:04:21.413Z,1023.94
2019-05-15T01:05:21.403Z,1023.94
2019-05-15T01:06:21.405Z,1023.87
2019-05-15T01:07:21.449Z,1023.91
2019-05-15T01:08:21.427Z,1023.88
2019-05-15T01:09:21.457Z,1023.86
2019-05-15T01:10:21.427Z,1023.81
2019-05-15T01:11:21.462Z,1023.86
2019-05-15T01:12:21.430Z,1023.83
2019-05-15T01:13:21.438Z,1023.85
2019-05-15T01:14:21.434Z,1023.83
2019-05-15T01:15:21.472Z,1023.81
2019-05-15T01:16:21.445Z,1023.81
2019-05-15T01:17:21.448Z,1023.85
2019-05-15T01:18:21.472Z,1023.83
2019-05-15T01:19:21.452Z,1023.78
2019-05-15T01:20:21.475Z,1023.74
2019-05-15T01:21:21.469Z,1023.77
2019-05-15T01:22:21.468Z,1023.72
2019-05-15T01:23:21.480Z,1023.76
2019-05-15T01:24:21.485Z,1023.87
2019-05-15T01:25:21.507Z,1023.74
2019-05-15T01:26:21.511Z,1023.70
2019-05-15T01:27:21.491Z,1023.68
2019-05-15T01:28:21.498Z,1023.68
2019-05-15T01:29:21.493Z,1023.67
2019-05-15T01:30:21.515Z,1023.66
2019-05-15T01:31:21.494Z,1023.65
2019-05-15T01:32:21.534Z,1023.64
2019-05-15T01:33:21.537Z,1023.65
2019-05-15T01:34:21.517Z,1023.64
2019-05-15T01:35:21.514Z,1023.69
2019-05-15T01:36:21.567Z,1023.68
2019-05-15T01:37:21.521Z,1023.70
2019-05-15T01:38:21.527Z,1023.68
2019-05-15T01:39:21.533Z,1023.59
2019-05-15T01:40:21.537Z,1023.66
2019-05-15T01:41:21.583Z,1023.60
2019-05-15T01:42:21.573Z,1023.63
2019-05-15T01:43:21.543Z,1023.72
2019-05-15T01:44:21.562Z,1023.65
2019-05-15T01:45:21.553Z,1023.64
2019-05-15T01:46:21.564Z,1023.56
2019-05-15T01:47:21.583Z,1023.55
2019-05-15T01:48:21.577Z,1023.60
2019-05-15T01:49:21.569Z,1023.62
2019-05-15T01:50:21.570Z,1023.57
2019-05-15T01:51:21.566Z,1023.57
2019-05-15T01:52:21.597Z,1023.54
2019-05-15T01:53:21.601Z,1023.53
2019-05-15T01:54:21.575Z,1023.54
2019-05-15T01:55:21.592Z,1023.51
2019-05-15T01:56:21.593Z,1023.50
2019-05-15T01:57:21.634Z,1023.51
2019-05-15T01:58:21.591Z,1023.47
2019-05-15T01:59:21.596Z,1023.43
2019-05-15T02:00:21.632Z,1023.45
2019-05-15T02:01:21.615Z,1023.48
2019-05-15T02:02:21.646Z,1023.47
2019-05-15T02:03:21.600Z,1023.48
2019-05-15T02:04:21.641Z,1023.43
2019-05-15T02:05:21.632Z,1023.45
2019-05-15T02:06:21.624Z,1023.45
2019-05-15T02:07:21.670Z,1023.48
2019-05-15T02:08:21.660Z,1023.46
2019-05-15T02:09:21.628Z,1023.45
2019-05-15T02:10:21.627Z,1023.46
2019-05-15T02:11:21.657Z,1023.46
2019-05-15T02:12:21.655Z,1023.43
2019-05-15T02:13:21.690Z,1023.44
2019-05-15T02:14:21.674Z,1023.43
2019-05-15T02:15:21.672Z,1023.38
2019-05-15T02:16:21.646Z,1023.38
2019-05-15T02:17:21.650Z,1023.36
2019-05-15T02:18:21.698Z,1023.36
2019-05-15T02:19:21.664Z,1023.35
2019-05-15T02:20:21.671Z,1023.37
2019-05-15T02:21:21.677Z,1023.33
2019-05-15T02:22:21.693Z,1023.33
2019-05-15T02:23:21.697Z,1023.33
2019-05-15T02:24:21.683Z,1023.30
2019-05-15T02:25:21.695Z,1023.31
2019-05-15T02:26:21.693Z,1023.30
2019-05-15T02:27:21.711Z,1023.27
2019-05-15T02:28:21.686Z,1023.31
2019-05-15T02:29:25.186Z,1023.25
2019-05-15T02:30:29.049Z,1023.25
2019-05-15T02:31:21.704Z,1023.31
2019-05-15T02:32:21.743Z,1023.29
2019-05-15T02:33:21.716Z,1023.31
2019-05-15T02:34:21.717Z,1023.26
2019-05-15T02:35:21.743Z,1023.26
2019-05-15T02:36:21.725Z,1023.22
2019-05-15T02:37:21.738Z,1023.27
2019-05-15T02:38:21.733Z,1023.22
2019-05-15T02:39:21.786Z,1023.29
2019-05-15T02:40:21.728Z,1023.22
2019-05-15T02:41:21.742Z,1023.20
2019-05-15T02:42:21.740Z,1023.29
2019-05-15T02:43:21.751Z,1023.33
2019-05-15T02:44:21.742Z,1023.28
2019-05-15T02:45:21.795Z,1023.31
2019-05-15T02:46:21.766Z,1023.28
2019-05-15T02:47:21.758Z,1023.25
2019-05-15T02:48:21.767Z,1023.28
2019-05-15T02:49:21.756Z,1023.29
2019-05-15T02:50:21.758Z,1023.29
2019-05-15T02:51:21.788Z,1023.26
2019-05-15T02:52:21.775Z,1023.25
2019-05-15T02:53:21.783Z,1023.30
2019-05-15T02:54:21.800Z,1023.30
2019-05-15T02:55:21.805Z,1023.28
2019-05-15T02:56:21.777Z,1023.29
2019-05-15T02:57:21.791Z,1023.25
2019-05-15T02:58:21.912Z,1023.28
2019-05-15T02:59:21.785Z,1023.26
2019-05-15T03:00:36.687Z,1023.30
2019-05-15T03:01:21.798Z,1023.25
2019-05-15T03:02:21.804Z,1023.27
2019-05-15T03:03:21.802Z,1023.28
2019-05-15T03:04:21.819Z,1023.31
2019-05-15T03:05:21.807Z,1023.25
2019-05-15T03:06:21.867Z,1023.32
2019-05-15T03:07:21.819Z,1023.27
2019-05-15T03:08:21.817Z,1023.26
2019-05-15T03:09:21.817Z,1023.33
2019-05-15T03:10:21.818Z,1023.31
2019-05-15T03:11:21.830Z,1023.27
2019-05-15T03:12:21.850Z,1023.31
2019-05-15T03:13:21.849Z,1023.24
2019-05-15T03:14:21.864Z,1023.25
2019-05-15T03:15:21.833Z,1023.30
2019-05-15T03:16:21.863Z,1023.26
2019-05-15T03:17:21.859Z,1023.31
2019-05-15T03:18:21.860Z,1023.30
2019-05-15T03:19:21.855Z,1023.27
2019-05-15T03:20:21.863Z,1023.32
2019-05-15T03:21:21.895Z,1023.33
2019-05-15T03:22:21.879Z,1023.30
2019-05-15T03:23:21.897Z,1023.32
2019-05-15T03:24:21.873Z,1023.33
2019-05-15T03:25:21.863Z,1023.32
2019-05-15T03:26:21.883Z,1023.25
2019-05-15T03:27:21.883Z,1023.28
2019-05-15T03:28:21.922Z,1023.27
2019-05-15T03:29:21.924Z,1023.28
2019-05-15T03:30:22.375Z,1023.23
2019-05-15T03:31:39.977Z,1023.29
2019-05-15T03:32:32.779Z,1023.26
2019-05-15T03:33:27.978Z,1023.25
2019-05-15T03:34:28.828Z,1023.28
2019-05-15T03:35:23.187Z,1023.30
2019-05-15T03:36:23.916Z,1023.34
2019-05-15T03:37:22.837Z,1023.33
2019-05-15T03:38:21.914Z,1023.29
2019-05-15T03:39:21.913Z,1023.31
2019-05-15T03:40:21.943Z,1023.30
2019-05-15T03:41:21.916Z,1023.31
2019-05-15T03:42:21.937Z,1023.30
2019-05-15T03:43:21.939Z,1023.27
2019-05-15T03:44:21.971Z,1023.27
2019-05-15T03:45:21.945Z,1023.27
2019-05-15T03:46:21.935Z,1023.33
2019-05-15T03:47:21.952Z,1023.30
2019-05-15T03:48:21.949Z,1023.32
2019-05-15T03:49:21.973Z,1023.30
2019-05-15T03:50:21.970Z,1023.32
2019-05-15T03:51:21.956Z,1023.30
2019-05-15T03:52:21.986Z,1023.30
2019-05-15T03:53:21.960Z,1023.26
2019-05-15T03:54:21.962Z,1023.25
2019-05-15T03:55:21.976Z,1023.28
2019-05-15T03:56:22.000Z,1023.25
2019-05-15T03:57:23.208Z,1023.30
2019-05-15T03:58:22.010Z,1023.32
2019-05-15T03:59:21.974Z,1023.31
2019-05-15T04:00:21.998Z,1023.30
2019-05-15T04:01:34.330Z,1023.25
2019-05-15T04:02:21.983Z,1023.25
2019-05-15T04:03:22.043Z,1023.30
2019-05-15T04:04:21.998Z,1023.31
2019-05-15T04:05:22.021Z,1023.32
2019-05-15T04:06:22.006Z,1023.33
2019-05-15T04:07:22.018Z,1023.29
2019-05-15T04:08:22.001Z,1023.34
2019-05-15T04:09:22.004Z,1023.32
2019-05-15T04:10:22.024Z,1023.31
2019-05-15T04:11:22.043Z,1023.32
2019-05-15T04:12:22.022Z,1023.31
2019-05-15T04:13:22.029Z,1023.31
2019-05-15T04:14:22.020Z,1023.33
2019-05-15T04:15:22.033Z,1023.29
2019-05-15T04:16:22.056Z,1023.27
2019-05-15T04:17:22.084Z,1023.29
2019-05-15T04:18:22.053Z,1023.30
2019-05-15T04:19:22.047Z,1023.27
2019-05-15T04:20:22.054Z,1023.31
2019-05-15T04:21:22.070Z,1023.36
2019-05-15T04:22:22.068Z,1023.27
2019-05-15T04:23:22.074Z,1023.32
2019-05-15T04:24:22.070Z,1023.31
2019-05-15T04:25:22.065Z,1023.28
2019-05-15T04:26:22.070Z,1023.27
2019-05-15T04:27:22.116Z,1023.24
2019-05-15T04:28:22.089Z,1023.27
2019-05-15T04:29:22.069Z,1023.26
2019-05-15T04:30:22.083Z,1023.26
2019-05-15T04:31:22.092Z,1023.28
2019-05-15T04:32:22.084Z,1023.27
2019-05-15T04:33:22.102Z,1023.27
2019-05-15T04:34:22.090Z,1023.26
2019-05-15T04:35:22.094Z,1023.23
2019-05-15T04:36:22.108Z,1023.25
2019-05-15T04:37:22.109Z,1023.21
2019-05-15T04:38:22.144Z,1023.20
2019-05-15T04:39:22.123Z,1023.15
2019-05-15T04:40:22.117Z,1023.21
2019-05-15T04:41:22.112Z,1023.17
2019-05-15T04:42:22.117Z,1023.20
2019-05-15T04:43:22.146Z,1023.18
2019-05-15T04:44:22.122Z,1023.24
2019-05-15T04:45:22.139Z,1023.23
2019-05-15T04:46:22.147Z,1023.25
2019-05-15T04:47:22.143Z,1023.20
2019-05-15T04:48:22.162Z,1023.19
2019-05-15T04:49:22.163Z,1023.18
2019-05-15T04:50:22.173Z,1023.19
2019-05-15T04:51:22.179Z,1023.22
2019-05-15T04:52:22.177Z,1023.21
2019-05-15T04:53:22.169Z,1023.21
2019-05-15T04:54:22.178Z,1023.20
2019-05-15T04:55:22.181Z,1023.20
2019-05-15T04:56:22.186Z,1023.18
2019-05-15T04:57:22.188Z,1023.23
2019-05-15T04:58:22.183Z,1023.15
2019-05-15T04:59:22.233Z,1023.13
2019-05-15T05:00:22.206Z,1023.21
2019-05-15T05:01:22.206Z,1023.15
2019-05-15T05:02:26.476Z,1023.16
2019-05-15T05:03:22.247Z,1023.13
2019-05-15T05:04:22.208Z,1023.20
2019-05-15T05:05:22.232Z,1023.16
2019-05-15T05:06:22.216Z,1023.17
2019-05-15T05:07:22.216Z,1023.16
2019-05-15T05:08:22.232Z,1023.18
2019-05-15T05:09:22.239Z,1023.12
2019-05-15T05:10:22.296Z,1023.20
2019-05-15T05:11:24.034Z,1023.21
2019-05-15T05:12:22.341Z,1023.15
2019-05-15T05:13:22.309Z,1023.21
2019-05-15T05:14:22.265Z,1023.16
2019-05-15T05:15:22.238Z,1023.21
2019-05-15T05:16:22.264Z,1023.13
2019-05-15T05:17:22.262Z,1023.15
2019-05-15T05:18:22.452Z,1023.16
2019-05-15T05:19:22.262Z,1023.16
2019-05-15T05:20:22.278Z,1023.14
2019-05-15T05:21:22.344Z,1023.13
2019-05-15T05:22:22.266Z,1023.13
2019-05-15T05:23:22.283Z,1023.16
2019-05-15T05:24:22.302Z,1023.21
2019-05-15T05:25:22.352Z,1023.28
2019-05-15T05:26:22.285Z,1023.16
2019-05-15T05:27:22.342Z,1023.18
2019-05-15T05:28:22.727Z,1023.12
2019-05-15T05:29:22.354Z,1023.11
2019-05-15T05:30:22.316Z,1023.13
2019-05-15T05:31:22.328Z,1023.10
2019-05-15T05:32:31.983Z,1023.15
2019-05-15T05:33:22.335Z,1023.20
2019-05-15T05:34:22.384Z,1023.13
2019-05-15T05:35:22.424Z,1023.17
2019-05-15T05:36:22.344Z,1023.19
2019-05-15T05:37:22.333Z,1023.16
2019-05-15T05:38:22.366Z,1023.17
2019-05-15T05:39:22.353Z,1023.21
2019-05-15T05:40:22.349Z,1023.12
2019-05-15T05:41:22.398Z,1023.09
2019-05-15T05:42:22.395Z,1023.19
2019-05-15T05:43:22.356Z,1023.20
2019-05-15T05:44:22.371Z,1023.17
2019-05-15T05:45:22.381Z,1023.16
2019-05-15T05:46:22.371Z,1023.23
2019-05-15T05:47:22.424Z,1023.27
2019-05-15T05:48:22.431Z,1023.28
2019-05-15T05:49:22.421Z,1023.29
2019-05-15T05:50:22.397Z,1023.31
2019-05-15T05:51:22.394Z,1023.28
2019-05-15T05:52:22.414Z,1023.32
2019-05-15T05:53:22.433Z,1023.27
2019-05-15T05:54:22.410Z,1023.30
2019-05-15T05:55:22.410Z,1023.31
2019-05-15T05:56:22.437Z,1023.33
2019-05-15T05:57:22.443Z,1023.27
2019-05-15T05:58:22.456Z,1023.32
2019-05-15T05:59:22.428Z,1023.25
2019-05-15T06:00:22.442Z,1023.15
2019-05-15T06:01:22.452Z,1023.24
2019-05-15T06:02:22.460Z,1023.21
2019-05-15T06:03:22.482Z,1023.17
2019-05-15T06:04:22.465Z,1023.20
2019-05-15T06:05:22.478Z,1023.19
2019-05-15T06:06:22.463Z,1023.12
2019-05-15T06:07:22.497Z,1023.13
2019-05-15T06:08:22.483Z,1023.18
2019-05-15T06:09:22.524Z,1023.17
2019-05-15T06:10:22.517Z,1023.11
2019-05-15T06:11:22.491Z,1023.17
2019-05-15T06:12:22.493Z,1023.18
2019-05-15T06:13:22.505Z,1023.22
2019-05-15T06:14:22.621Z,1023.26
2019-05-15T06:15:22.526Z,1023.16
2019-05-15T06:16:22.511Z,1023.20
2019-05-15T06:17:22.528Z,1023.19
2019-05-15T06:18:22.531Z,1023.23
2019-05-15T06:19:22.537Z,1023.23
2019-05-15T06:20:22.553Z,1023.22
2019-05-15T06:21:22.539Z,1023.24
2019-05-15T06:22:22.552Z,1023.19
2019-05-15T06:23:24.962Z,1023.23
2019-05-15T06:24:22.568Z,1023.30
2019-05-15T06:25:22.646Z,1023.28
2019-05-15T06:26:22.573Z,1023.31
2019-05-15T06:27:22.588Z,1023.43
2019-05-15T06:28:22.580Z,1023.38
2019-05-15T06:29:22.592Z,1023.50
2019-05-15T06:30:27.493Z,1023.48
2019-05-15T06:31:22.629Z,1023.35
2019-05-15T06:32:22.627Z,1023.34
2019-05-15T06:33:22.607Z,1023.38
2019-05-15T06:34:22.609Z,1023.36
2019-05-15T06:35:22.641Z,1023.37
2019-05-15T06:36:22.627Z,1023.66
2019-05-15T06:37:22.673Z,1023.61
2019-05-15T06:38:22.656Z,1023.79
2019-05-15T06:39:22.642Z,1023.71
2019-05-15T06:40:22.659Z,1023.54
2019-05-15T06:41:22.678Z,1023.66
2019-05-15T06:42:22.743Z,1023.67
2019-05-15T06:43:22.668Z,1023.32
2019-05-15T06:44:22.678Z,1023.41
2019-05-15T06:45:22.697Z,1023.14
2019-05-15T06:46:22.699Z,1023.17
2019-05-15T06:47:22.742Z,1023.13
2019-05-15T06:48:22.724Z,1023.10
2019-05-15T06:49:22.760Z,1023.11
2019-05-15T06:50:22.728Z,1023.11
2019-05-15T06:51:22.739Z,1023.09
2019-05-15T06:52:22.760Z,1023.13
2019-05-15T06:53:22.748Z,1023.12
2019-05-15T06:54:22.776Z,1023.05
2019-05-15T06:55:22.766Z,1023.25
2019-05-15T06:56:22.805Z,1023.12
2019-05-15T06:57:22.787Z,1023.12
2019-05-15T06:58:25.187Z,1023.15
2019-05-15T06:59:22.825Z,1023.16
2019-05-15T07:00:22.816Z,1023.31
2019-05-15T07:01:22.819Z,1023.21
2019-05-15T07:02:22.837Z,1023.13
2019-05-15T07:03:25.689Z,1023.21
2019-05-15T07:04:22.861Z,1023.17
2019-05-15T07:05:22.878Z,1023.19
2019-05-15T07:06:22.861Z,1023.00
2019-05-15T07:07:22.881Z,1023.02
2019-05-15T07:08:22.866Z,1023.00
2019-05-15T07:09:22.900Z,1023.00
2019-05-15T07:10:22.960Z,1023.11
2019-05-15T07:11:22.935Z,1022.94
2019-05-15T07:12:22.911Z,1023.09
2019-05-15T07:13:22.914Z,1023.02
2019-05-15T07:14:22.934Z,1023.08
2019-05-15T07:15:22.909Z,1023.00
2019-05-15T07:16:22.926Z,1022.99
2019-05-15T07:17:22.929Z,1022.96
2019-05-15T07:18:22.971Z,1023.00
2019-05-15T07:19:22.959Z,1022.99
2019-05-15T07:20:23.004Z,1022.99
2019-05-15T07:21:22.970Z,1022.89
2019-05-15T07:22:22.976Z,1023.04
2019-05-15T07:23:22.967Z,1022.86
2019-05-15T07:24:22.973Z,1022.90
2019-05-15T07:25:22.990Z,1022.93
2019-05-15T07:26:23.015Z,1022.98
2019-05-15T07:27:23.017Z,1022.88
2019-05-15T07:28:23.016Z,1023.18
2019-05-15T07:29:23.006Z,1022.99
2019-05-15T07:30:23.029Z,1022.94
2019-05-15T07:31:23.048Z,1022.96
2019-05-15T07:32:23.048Z,1023.05
2019-05-15T07:33:35.907Z,1022.94
2019-05-15T07:34:23.047Z,1022.96
2019-05-15T07:35:24.390Z,1022.92
2019-05-15T07:36:23.097Z,1022.88
2019-05-15T07:37:23.061Z,1022.89
2019-05-15T07:38:23.091Z,1022.88
2019-05-15T07:39:23.096Z,1022.80
2019-05-15T07:40:23.108Z,1023.10
2019-05-15T07:41:23.132Z,1022.90
2019-05-15T07:42:23.244Z,1022.86
2019-05-15T07:43:23.117Z,1022.85
2019-05-15T07:44:23.117Z,1022.78
2019-05-15T07:45:23.127Z,1022.90
2019-05-15T07:46:23.136Z,1022.87
2019-05-15T07:47:23.157Z,1022.97
2019-05-15T07:48:23.151Z,1022.91
2019-05-15T07:49:23.147Z,1022.88
2019-05-15T07:50:23.198Z,1023.01
2019-05-15T07:51:23.184Z,1022.93
2019-05-15T07:52:23.199Z,1022.90
2019-05-15T07:53:23.224Z,1022.94
2019-05-15T07:54:23.192Z,1023.09
2019-05-15T07:55:23.200Z,1023.00
2019-05-15T07:56:23.193Z,1022.95
2019-05-15T07:57:23.204Z,1022.95
2019-05-15T07:58:23.216Z,1022.93
2019-05-15T07:59:23.231Z,1022.99
2019-05-15T08:00:23.240Z,1023.08
2019-05-15T08:01:23.280Z,1023.14
2019-05-15T08:02:23.243Z,1022.93
2019-05-15T08:03:23.263Z,1022.93
2019-05-15T08:04:29.611Z,1022.92
2019-05-15T08:05:23.270Z,1023.00
2019-05-15T08:06:24.736Z,1023.01
2019-05-15T08:07:23.316Z,1022.95
2019-05-15T08:08:23.313Z,1022.88
2019-05-15T08:09:23.321Z,1023.02
2019-05-15T08:10:23.300Z,1023.01
2019-05-15T08:11:24.820Z,1023.04
2019-05-15T08:12:23.343Z,1022.88
2019-05-15T08:13:23.338Z,1022.94
2019-05-15T08:14:23.433Z,1023.03
2019-05-15T08:15:23.469Z,1022.96
2019-05-15T08:16:23.359Z,1022.91
2019-05-15T08:17:23.368Z,1022.95
2019-05-15T08:18:23.372Z,1022.86
2019-05-15T08:19:23.462Z,1022.93
2019-05-15T08:20:23.387Z,1022.82
2019-05-15T08:21:23.427Z,1022.97
2019-05-15T08:22:23.416Z,1022.89
2019-05-15T08:23:23.419Z,1022.88
2019-05-15T08:24:23.434Z,1022.83
2019-05-15T08:25:32.414Z,1022.85
2019-05-15T08:26:23.434Z,1022.88
2019-05-15T08:27:23.814Z,1023.01
2019-05-15T08:28:23.444Z,1022.83
2019-05-15T08:29:23.485Z,1022.88
2019-05-15T08:30:23.487Z,1022.82
2019-05-15T08:31:23.499Z,1022.80
2019-05-15T08:32:23.482Z,1022.81
2019-05-15T08:33:23.494Z,1022.78
2019-05-15T08:34:23.488Z,1022.77
2019-05-15T08:35:23.628Z,1022.86
2019-05-15T08:36:23.514Z,1022.85
2019-05-15T08:37:23.534Z,1022.76
2019-05-15T08:38:23.547Z,1022.71
2019-05-15T08:39:23.543Z,1022.77
2019-05-15T08:40:23.739Z,1022.65
2019-05-15T08:41:23.544Z,1022.72
2019-05-15T08:42:23.562Z,1022.66
2019-05-15T08:43:23.561Z,1022.71
2019-05-15T08:44:23.580Z,1022.79
2019-05-15T08:45:23.600Z,1022.65
2019-05-15T08:46:23.622Z,1022.65
2019-05-15T08:47:23.600Z,1022.60
2019-05-15T08:48:23.600Z,1022.64
2019-05-15T08:49:23.619Z,1022.52
2019-05-15T08:50:23.635Z,1022.61
2019-05-15T08:51:23.672Z,1022.67
2019-05-15T08:52:24.805Z,1022.61
2019-05-15T08:53:23.671Z,1022.56
2019-05-15T08:54:23.859Z,1022.69
2019-05-15T08:55:23.741Z,1022.62
2019-05-15T08:56:23.671Z,1022.60
2019-05-15T08:57:23.693Z,1022.61
2019-05-15T08:58:23.755Z,1022.66
2019-05-15T08:59:23.699Z,1022.67
2019-05-15T09:00:23.693Z,1022.76
2019-05-15T09:01:23.724Z,1022.64
2019-05-15T09:02:23.775Z,1022.50
2019-05-15T09:03:23.864Z,1022.50
2019-05-15T09:04:30.705Z,1022.59
2019-05-15T09:05:23.752Z,1022.58
2019-05-15T09:06:23.758Z,1022.50
2019-05-15T09:07:23.799Z,1022.51
2019-05-15T09:08:23.789Z,1022.39
2019-05-15T09:09:23.822Z,1022.55
2019-05-15T09:10:23.785Z,1022.45
2019-05-15T09:11:23.830Z,1022.42
2019-05-15T09:12:23.822Z,1022.42
2019-05-15T09:13:23.889Z,1022.47
2019-05-15T09:14:23.836Z,1022.46
2019-05-15T09:15:23.812Z,1022.45
2019-05-15T09:16:23.876Z,1022.39
2019-05-15T09:17:23.844Z,1022.55
2019-05-15T09:18:23.859Z,1022.39
2019-05-15T09:19:23.864Z,1022.35
2019-05-15T09:20:23.874Z,1022.49
2019-05-15T09:21:23.882Z,1022.48
2019-05-15T09:22:23.880Z,1022.43
2019-05-15T09:23:24.006Z,1022.35
2019-05-15T09:24:23.910Z,1022.38
2019-05-15T09:25:23.921Z,1022.33
2019-05-15T09:26:23.923Z,1022.25
2019-05-15T09:27:23.931Z,1022.49
2019-05-15T09:28:23.946Z,1022.30
2019-05-15T09:29:24.010Z,1022.32
2019-05-15T09:30:23.963Z,1022.19
2019-05-15T09:31:24.022Z,1022.22
2019-05-15T09:32:23.998Z,1022.24
2019-05-15T09:33:23.989Z,1022.17
2019-05-15T09:34:23.987Z,1022.14
2019-05-15T09:35:24.001Z,1022.24
2019-05-15T09:36:23.982Z,1022.25
2019-05-15T09:37:24.046Z,1022.16
2019-05-15T09:38:24.122Z,1022.36
2019-05-15T09:39:24.035Z,1022.30
2019-05-15T09:40:38.823Z,1022.22
2019-05-15T09:41:24.020Z,1022.31
2019-05-15T09:42:24.040Z,1022.16
2019-05-15T09:43:24.047Z,1022.39
2019-05-15T09:44:24.070Z,1022.18
2019-05-15T09:45:24.077Z,1022.08
2019-05-15T09:46:24.275Z,1022.15
2019-05-15T09:47:24.076Z,1022.22
2019-05-15T09:48:24.102Z,1022.25
2019-05-15T09:49:24.550Z,1022.08
2019-05-15T09:50:24.142Z,1022.13
2019-05-15T09:51:24.288Z,1022.28
2019-05-15T09:52:24.154Z,1022.13
2019-05-15T09:53:24.150Z,1022.12
2019-05-15T09:54:25.683Z,1021.98
2019-05-15T09:55:24.148Z,1022.13
2019-05-15T09:56:24.193Z,1022.07
2019-05-15T09:57:24.195Z,1022.44
2019-05-15T09:58:24.211Z,1022.03
2019-05-15T09:59:24.216Z,1022.15
2019-05-15T10:00:24.199Z,1021.93
2019-05-15T10:01:24.351Z,1022.05
2019-05-15T10:02:24.187Z,1021.99
2019-05-15T10:03:24.226Z,1021.85
2019-05-15T10:04:24.248Z,1021.87
2019-05-15T10:05:24.643Z,1022.01
2019-05-15T10:06:24.269Z,1021.90
2019-05-15T10:07:24.283Z,1021.86
2019-05-15T10:08:24.907Z,1021.88
2019-05-15T10:09:24.318Z,1021.74
2019-05-15T10:10:24.339Z,1021.80
2019-05-15T10:11:24.314Z,1021.79
2019-05-15T10:12:24.383Z,1021.84
2019-05-15T10:13:24.310Z,1021.77
2019-05-15T10:14:24.310Z,1021.81
2019-05-15T10:15:24.313Z,1021.92
2019-05-15T10:16:24.311Z,1021.93
2019-05-15T10:17:24.344Z,1021.88
2019-05-15T10:18:24.340Z,1021.75
2019-05-15T10:19:24.365Z,1021.98
2019-05-15T10:20:24.346Z,1021.83
2019-05-15T10:21:28.845Z,1021.75
2019-05-15T10:22:24.385Z,1021.76
2019-05-15T10:23:24.429Z,1021.79
2019-05-15T10:24:24.371Z,1021.69
2019-05-15T10:25:24.381Z,1022.08
2019-05-15T10:26:24.398Z,1021.78
2019-05-15T10:27:24.418Z,1021.81
2019-05-15T10:28:24.559Z,1021.68
2019-05-15T10:29:28.094Z,1021.71
2019-05-15T10:30:24.447Z,1021.68
2019-05-15T10:31:24.437Z,1021.65
2019-05-15T10:32:25.105Z,1021.64
2019-05-15T10:33:24.442Z,1021.70
2019-05-15T10:34:24.734Z,1021.73
2019-05-15T10:35:28.496Z,1021.65
2019-05-15T10:36:27.824Z,1021.79
2019-05-15T10:37:24.506Z,1021.67
2019-05-15T10:38:24.510Z,1021.80
2019-05-15T10:39:25.466Z,1021.58
2019-05-15T10:40:24.537Z,1021.50
2019-05-15T10:41:24.523Z,1021.51
2019-05-15T10:42:24.532Z,1021.51
2019-05-15T10:43:24.538Z,1021.48
2019-05-15T10:44:24.570Z,1021.49
2019-05-15T10:45:24.596Z,1021.49
2019-05-15T10:46:24.591Z,1021.45
2019-05-15T10:47:24.586Z,1021.44
2019-05-15T10:48:24.581Z,1021.36
2019-05-15T10:49:24.654Z,1021.55
2019-05-15T10:50:24.621Z,1021.46
2019-05-15T10:51:24.602Z,1021.43
2019-05-15T10:52:24.623Z,1021.36
2019-05-15T10:53:24.618Z,1021.29
2019-05-15T10:54:24.631Z,1021.39
2019-05-15T10:55:24.678Z,1021.30
2019-05-15T10:56:24.646Z,1021.38
2019-05-15T10:57:24.684Z,1021.32
2019-05-15T10:58:24.676Z,1021.37
2019-05-15T10:59:24.672Z,1021.31
2019-05-15T11:00:24.681Z,1021.31
2019-05-15T11:01:24.708Z,1021.29
2019-05-15T11:02:24.715Z,1021.68
2019-05-15T11:03:24.711Z,1021.30
2019-05-15T11:04:24.729Z,1021.35
2019-05-15T11:05:40.181Z,1021.33
2019-05-15T11:06:24.756Z,1021.25
2019-05-15T11:07:24.739Z,1021.35
2019-05-15T11:08:24.763Z,1021.28
2019-05-15T11:09:24.798Z,1021.17
2019-05-15T11:10:24.773Z,1021.16
2019-05-15T11:11:24.795Z,1021.21
2019-05-15T11:12:24.918Z,1021.14
2019-05-15T11:13:24.781Z,1021.17
2019-05-15T11:14:24.798Z,1021.29
2019-05-15T11:15:24.807Z,1021.12
2019-05-15T11:16:24.811Z,1021.14
2019-05-15T11:17:25.006Z,1021.12
2019-05-15T11:18:24.871Z,1021.13
2019-05-15T11:19:24.862Z,1021.11
2019-05-15T11:20:24.909Z,1021.08
2019-05-15T11:21:24.880Z,1021.08
2019-05-15T11:22:24.893Z,1021.17
2019-05-15T11:23:24.861Z,1021.16
2019-05-15T11:24:24.895Z,1021.26
2019-05-15T11:25:24.979Z,1021.21
2019-05-15T11:26:24.918Z,1021.11
2019-05-15T11:27:24.921Z,1021.09
2019-05-15T11:28:25.042Z,1021.23
2019-05-15T11:29:24.925Z,1021.24
2019-05-15T11:30:24.990Z,1021.07
2019-05-15T11:31:25.122Z,1021.10
2019-05-15T11:32:24.951Z,1021.15
2019-05-15T11:33:25.005Z,1021.08
2019-05-15T11:34:25.039Z,1021.10
2019-05-15T11:35:24.976Z,1021.10
2019-05-15T11:36:24.973Z,1021.06
2019-05-15T11:37:25.057Z,1021.20
2019-05-15T11:38:25.022Z,1021.09
2019-05-15T11:39:25.032Z,1021.00
2019-05-15T11:40:25.076Z,1021.14
2019-05-15T11:41:25.015Z,1021.04
2019-05-15T11:42:25.030Z,1021.03
2019-05-15T11:43:25.042Z,1021.00
2019-05-15T11:44:25.082Z,1020.95
2019-05-15T11:45:25.061Z,1020.90
2019-05-15T11:46:25.886Z,1020.95
2019-05-15T11:47:25.086Z,1021.06
2019-05-15T11:48:25.175Z,1020.91
2019-05-15T11:49:25.082Z,1020.92
2019-05-15T11:50:25.128Z,1021.00
2019-05-15T11:51:25.101Z,1020.85
2019-05-15T11:52:25.182Z,1020.90
2019-05-15T11:53:25.120Z,1020.85
2019-05-15T11:54:25.160Z,1020.85
2019-05-15T11:55:25.166Z,1020.80
2019-05-15T11:56:25.198Z,1020.76
2019-05-15T11:57:42.151Z,1020.79
2019-05-15T11:58:25.228Z,1020.95
2019-05-15T11:59:25.308Z,1020.83
2019-05-15T12:00:27.164Z,1020.76
2019-05-15T12:01:25.218Z,1020.79
2019-05-15T12:02:25.227Z,1020.81
2019-05-15T12:03:25.213Z,1020.80
2019-05-15T12:04:30.441Z,1020.74
2019-05-15T12:05:25.276Z,1020.72